createdAt,value
2018-10-07T00:02:11.683Z,11.40
2018-10-07T00:07:34.035Z,11.50
2018-10-07T00:12:55.885Z,11.50
2018-10-07T00:18:18.052Z,11.40
2018-10-07T00:23:39.875Z,11.40
2018-10-07T00:29:02.123Z,11.30
2018-10-07T00:34:24.008Z,11.30
2018-10-07T00:39:46.232Z,11.20
2018-10-07T00:45:08.629Z,11.20
2018-10-07T00:50:30.822Z,11.20
2018-10-07T00:55:52.849Z,11.30
2018-10-07T01:01:14.806Z,11.30
2018-10-07T01:06:37.078Z,11.30
2018-10-07T01:11:58.833Z,11.40
2018-10-07T01:17:21.071Z,11.40
2018-10-07T01:22:42.861Z,11.40
2018-10-07T01:28:04.933Z,11.50
2018-10-07T01:33:29.045Z,11.50
2018-10-07T01:38:50.954Z,11.50
2018-10-07T01:44:12.852Z,11.60
2018-10-07T01:49:35.603Z,11.60
2018-10-07T01:54:57.593Z,11.60
2018-10-07T02:00:19.243Z,11.60
2018-10-07T02:05:41.546Z,11.60
2018-10-07T02:11:03.298Z,11.70
2018-10-07T02:16:25.429Z,11.60
2018-10-07T02:21:47.198Z,11.60
2018-10-07T02:27:09.437Z,11.60
2018-10-07T02:32:31.286Z,11.70
2018-10-07T02:37:53.550Z,11.60
2018-10-07T02:43:15.377Z,11.60
2018-10-07T02:48:37.503Z,11.60
2018-10-07T02:53:59.717Z,11.60
2018-10-07T02:59:21.893Z,11.60
2018-10-07T03:04:43.795Z,11.60
2018-10-07T03:10:05.870Z,11.70
2018-10-07T03:15:27.706Z,11.70
2018-10-07T03:20:49.870Z,11.70
2018-10-07T03:26:11.984Z,11.70
2018-10-07T03:31:34.086Z,11.70
2018-10-07T03:36:55.958Z,11.60
2018-10-07T03:42:18.853Z,11.60
2018-10-07T03:47:41.065Z,11.60
2018-10-07T03:53:03.030Z,11.60
2018-10-07T03:58:25.177Z,11.60
2018-10-07T04:03:47.302Z,11.60
2018-10-07T04:09:12.348Z,11.60
2018-10-07T04:14:34.688Z,11.60
2018-10-07T04:19:56.434Z,11.60
2018-10-07T04:25:18.186Z,11.50
2018-10-07T04:30:40.391Z,11.50
2018-10-07T04:36:02.294Z,11.40
2018-10-07T04:41:24.373Z,11.30
2018-10-07T04:46:46.365Z,11.20
2018-10-07T04:52:09.165Z,11.20
2018-10-07T04:57:31.225Z,11.20
2018-10-07T05:02:53.109Z,11.10
2018-10-07T05:08:15.068Z,11.00
2018-10-07T05:13:45.826Z,10.90
2018-10-07T05:19:08.121Z,10.90
2018-10-07T05:24:30.266Z,10.90
2018-10-07T05:29:52.082Z,10.80
2018-10-07T05:35:14.352Z,10.80
2018-10-07T05:40:36.217Z,10.70
2018-10-07T05:45:58.589Z,10.60
2018-10-07T05:51:20.724Z,10.60
2018-10-07T05:56:42.866Z,10.50
2018-10-07T06:02:07.155Z,10.50
2018-10-07T06:07:29.893Z,10.40
2018-10-07T06:12:51.759Z,10.30
2018-10-07T06:18:13.481Z,10.30
2018-10-07T06:23:35.945Z,10.20
2018-10-07T06:28:57.676Z,10.10
2018-10-07T06:34:19.753Z,10.10
2018-10-07T06:39:41.637Z,10.10
2018-10-07T06:45:03.936Z,10.10
2018-10-07T06:50:25.755Z,10.10
2018-10-07T06:55:48.535Z,10.00
2018-10-07T07:01:10.481Z,10.00
2018-10-07T07:06:32.533Z,10.10
2018-10-07T07:11:54.251Z,10.10
2018-10-07T07:17:16.395Z,10.20
2018-10-07T07:22:38.662Z,10.20
2018-10-07T07:28:00.813Z,10.30
2018-10-07T07:33:22.985Z,10.40
2018-10-07T07:38:44.771Z,10.50
2018-10-07T07:44:06.507Z,10.60
2018-10-07T07:49:28.554Z,10.80
2018-10-07T07:54:51.575Z,10.90
2018-10-07T08:00:13.840Z,11.10
2018-10-07T08:05:35.618Z,11.30
2018-10-07T08:10:57.819Z,11.40
2018-10-07T08:16:19.721Z,11.60
2018-10-07T08:21:41.955Z,11.80
2018-10-07T08:27:03.798Z,11.90
2018-10-07T08:32:26.155Z,12.00
2018-10-07T08:37:47.838Z,12.20
2018-10-07T08:43:09.989Z,12.30
2018-10-07T08:48:31.939Z,12.40
2018-10-07T08:53:53.657Z,12.50
2018-10-07T08:59:15.629Z,12.60
2018-10-07T09:04:37.665Z,12.80
2018-10-07T09:09:59.521Z,12.90
2018-10-07T09:15:21.582Z,13.00
2018-10-07T09:20:43.350Z,13.30
2018-10-07T09:26:05.565Z,13.40
2018-10-07T09:31:27.365Z,13.60
2018-10-07T09:36:49.929Z,13.80
2018-10-07T09:42:12.254Z,13.90
2018-10-07T09:47:34.425Z,14.10
2018-10-07T09:52:56.414Z,14.20
2018-10-07T09:58:18.228Z,14.40
2018-10-07T10:03:40.438Z,14.40
2018-10-07T10:09:02.759Z,14.50
2018-10-07T10:14:24.819Z,14.60
2018-10-07T10:20:13.069Z,14.60
2018-10-07T10:25:42.282Z,14.90
2018-10-07T10:31:10.309Z,14.90
2018-10-07T10:36:50.812Z,14.90
2018-10-07T10:42:19.827Z,15.00
2018-10-07T10:47:45.039Z,15.20
2018-10-07T10:53:20.445Z,15.30
2018-10-07T10:58:54.171Z,15.30
2018-10-07T11:04:31.297Z,15.40
2018-10-07T11:11:01.342Z,15.40
2018-10-07T11:16:25.901Z,15.40
2018-10-07T11:24:05.908Z,15.60
2018-10-07T11:29:39.478Z,15.70
2018-10-07T11:35:11.596Z,15.80
2018-10-07T11:40:43.581Z,15.80
2018-10-07T11:46:18.314Z,15.90
2018-10-07T11:52:53.596Z,16.00
2018-10-07T11:58:15.532Z,15.90
2018-10-07T12:03:37.541Z,15.90
2018-10-07T12:08:59.674Z,15.80
2018-10-07T12:14:21.849Z,15.90
2018-10-07T12:19:43.921Z,16.00
2018-10-07T12:25:06.558Z,16.00
2018-10-07T12:30:28.386Z,16.10
2018-10-07T12:35:50.301Z,16.10
2018-10-07T12:41:12.205Z,16.40
2018-10-07T12:46:34.502Z,16.30
2018-10-07T12:51:56.664Z,16.20
2018-10-07T12:57:19.178Z,16.30
2018-10-07T13:02:42.056Z,16.60
2018-10-07T13:08:04.123Z,16.60
2018-10-07T13:13:26.069Z,16.50
2018-10-07T13:18:48.079Z,16.50
2018-10-07T13:24:09.869Z,16.40
2018-10-07T13:29:35.638Z,16.40
2018-10-07T13:34:58.517Z,16.50
2018-10-07T13:40:20.295Z,16.50
2018-10-07T13:45:42.314Z,16.50
2018-10-07T13:51:04.688Z,16.70
2018-10-07T13:56:26.593Z,16.70
2018-10-07T14:01:49.102Z,16.60
2018-10-07T14:07:10.865Z,16.60
2018-10-07T14:12:32.845Z,16.60
2018-10-07T14:17:54.635Z,16.50
2018-10-07T14:23:16.987Z,16.40
2018-10-07T14:28:38.830Z,16.30
2018-10-07T14:34:01.601Z,16.30
2018-10-07T14:39:23.920Z,16.40
2018-10-07T14:44:45.891Z,16.30
2018-10-07T14:50:08.474Z,16.40
2018-10-07T14:55:31.081Z,16.30
2018-10-07T15:00:53.252Z,16.30
2018-10-07T15:06:15.494Z,16.30
2018-10-07T15:11:37.413Z,16.40
2018-10-07T15:16:59.206Z,16.30
2018-10-07T15:22:21.265Z,16.20
2018-10-07T15:27:43.103Z,16.00
2018-10-07T15:33:05.323Z,16.00
2018-10-07T15:38:27.346Z,16.00
2018-10-07T15:43:49.945Z,15.80
2018-10-07T15:49:12.846Z,15.70
2018-10-07T15:54:35.077Z,15.60
2018-10-07T15:59:56.834Z,15.50
2018-10-07T16:05:19.033Z,15.40
2018-10-07T16:10:41.263Z,15.20
2018-10-07T16:16:03.727Z,15.20
2018-10-07T16:21:26.483Z,15.10
2018-10-07T16:26:48.819Z,15.00
2018-10-07T16:32:10.853Z,14.80
2018-10-07T16:37:33.091Z,14.70
2018-10-07T16:42:55.133Z,14.60
2018-10-07T16:48:17.330Z,14.50
2018-10-07T16:53:41.541Z,14.30
2018-10-07T16:59:03.343Z,14.20
2018-10-07T17:04:25.531Z,14.00
2018-10-07T17:09:47.328Z,13.90
2018-10-07T17:15:09.911Z,13.80
2018-10-07T17:20:31.606Z,13.70
2018-10-07T17:25:53.843Z,13.50
2018-10-07T17:31:15.644Z,13.40
2018-10-07T17:36:37.922Z,13.30
2018-10-07T17:42:02.941Z,13.20
2018-10-07T17:47:30.133Z,13.10
2018-10-07T17:52:56.305Z,12.90
2018-10-07T17:58:22.326Z,12.80
2018-10-07T18:03:44.477Z,12.80
2018-10-07T18:09:07.686Z,12.70
2018-10-07T18:14:29.949Z,12.60
2018-10-07T18:19:52.088Z,12.40
2018-10-07T18:25:14.162Z,12.40
2018-10-07T18:30:36.175Z,12.30
2018-10-07T18:35:58.357Z,12.30
2018-10-07T18:41:20.157Z,12.10
2018-10-07T18:46:42.526Z,12.00
2018-10-07T18:52:04.595Z,11.90
2018-10-07T18:57:26.698Z,11.80
2018-10-07T19:02:49.795Z,11.80
2018-10-07T19:08:11.904Z,11.60
2018-10-07T19:13:33.806Z,11.60
2018-10-07T19:18:56.021Z,11.60
2018-10-07T19:24:18.314Z,11.30
2018-10-07T19:29:40.473Z,11.10
2018-10-07T19:35:02.650Z,11.00
2018-10-07T19:40:28.553Z,10.90
2018-10-07T19:45:52.892Z,10.90
2018-10-07T19:51:21.049Z,10.80
2018-10-07T19:56:47.412Z,10.90
2018-10-07T20:02:13.756Z,10.90
2018-10-07T20:07:44.943Z,10.80
2018-10-07T20:13:08.251Z,10.50
2018-10-07T20:28:17.696Z,10.40
2018-10-07T20:33:42.060Z,10.40
2018-10-07T20:39:05.945Z,10.30
2018-10-07T20:44:28.173Z,10.30
2018-10-07T20:49:50.685Z,10.30
2018-10-07T20:55:12.473Z,10.10
2018-10-07T21:00:34.909Z,9.90
2018-10-07T21:05:56.813Z,9.90
2018-10-07T21:11:18.888Z,9.80
2018-10-07T21:16:40.780Z,9.50
2018-10-07T21:22:03.630Z,9.10
2018-10-07T21:27:25.857Z,9.20
2018-10-07T21:32:47.835Z,9.20
2018-10-07T21:38:09.990Z,9.30
2018-10-07T21:43:31.750Z,9.20
2018-10-07T21:48:53.999Z,9.00
2018-10-07T21:54:15.914Z,9.00
2018-10-07T21:59:38.010Z,9.00
2018-10-07T22:05:00.280Z,9.00
2018-10-07T22:10:22.439Z,9.00
2018-10-07T22:15:44.348Z,9.00
2018-10-07T22:21:06.555Z,8.90
2018-10-07T22:26:28.405Z,8.60
2018-10-07T22:31:50.241Z,8.40
2018-10-07T22:37:12.262Z,8.40
2018-10-07T22:42:34.541Z,8.60
2018-10-07T22:47:56.427Z,8.60
2018-10-07T22:53:18.127Z,8.60
2018-10-07T22:58:40.318Z,8.40
2018-10-07T23:04:02.155Z,8.20
2018-10-07T23:09:23.867Z,8.20
2018-10-07T23:14:45.900Z,8.20
2018-10-07T23:20:08.232Z,8.20
2018-10-07T23:25:30.218Z,8.30
2018-10-07T23:30:52.525Z,8.20
2018-10-07T23:36:14.302Z,8.20
2018-10-07T23:41:37.653Z,8.20
2018-10-07T23:46:59.627Z,8.20
2018-10-07T23:52:21.644Z,8.10
2018-10-07T23:57:43.654Z,8.10
